Okeanos Explorer — WTDH — position and weather

sailwx.info

Track history (hours):
 
Tides and Currents Weather Stations Pressure Air Temp Water Temp Dewpoint Dewpoint Depression Visibility Wind Speed Wind Dir Waves Ship Positions

Oceanographic research ship Okeanos Explorer (USA)

Ship's website: http://oceanexplorer.noaa.gov/okeanos/

Last reported at 2017-Jul-21 02:00 UTC. Time now 2017-Jul-21 02:37 UTC.
Position N 15°42' W 171°12'.

Length 69 m; draft 5 m.

Type: Other ship. MMSI: 369888000.

Wind from 090 at 13 knots

Barometer 1012.4 mb
Water temperature 27.8 ° C

Date/timePositionNaut miles runAvg speedWind from/ knotsBaromVisibWave heightAir tempDewpointWater temp
2017-Jul-21 02:00N 15°42' W 171°12'6 5.8 090 / 131012.4 27.8
2017-Jul-21 01:00N 15°42' W 171°06'8 8.3 100 / 161012.8 27.8
2017-Jul-21 00:00N 15°48' W 171°00'8 8.3 100 / 151013.3 27.7
2017-Jul-20 23:00N 15°42' W 171°06'8 8.3 120 / 211013.3 27.7
2017-Jul-20 22:00N 15°36' W 171°12'6 5.8 110 / 201013.6 27.6
2017-Jul-20 21:00N 15°36' W 171°18'6 6.0 110 / 191013.5 27.5
2017-Jul-20 20:00N 15°30' W 171°18'6 5.8 100 / 161013.5 27.6
2017-Jul-20 19:00N 15°30' W 171°12'8 8.3 090 / 161013.3 27.5
2017-Jul-20 18:00N 15°36' W 171°06'8 8.3 090 / 131013.0 27.6
2017-Jul-20 17:00N 15°42' W 171°00'6 5.8 090 / 151012.6 27.6
2017-Jul-20 16:00N 15°42' W 170°54'8 8.3 110 / 151012.3 27.6
2017-Jul-20 15:00N 15°36' W 170°48'1313.0 100 / 161012.3 27.5
2017-Jul-20 14:00N 15°30' W 170°36'8 8.3 100 / 151012.4 27.4
2017-Jul-20 13:00N 15°24' W 170°30'6 5.8 100 / 161012.4 27.4
2017-Jul-20 12:00N 15°24' W 170°24'8 8.3 090 / 161013.0 27.4
2017-Jul-20 11:00N 15°30' W 170°18'8 8.3 090 / 151013.6 27.4
2017-Jul-20 10:00N 15°36' W 170°12'6 6.0 090 / 161013.9 27.4
2017-Jul-20 09:00N 15°42' W 170°12'8 8.3 090 / 181013.6 27.4
2017-Jul-20 08:00N 15°48' W 170°06'0 0.0 090 / 161013.3 27.5
2017-Jul-20 07:00N 15°48' W 170°06'6 6.0 110 / 201012.8 27.5
2017-Jul-20 06:00N 15°42' W 170°06'8 8.3 110 / 171012.0 27.5
2017-Jul-20 05:00N 15°36' W 170°12'1313.0 090 / 141011.9 27.5
2017-Jul-20 04:00N 15°30' W 170°00'8 8.3 100 / 161011.6 27.6
2017-Jul-20 03:00N 15°24' W 169°54'6 5.8 110 / 151011.8 27.5
2017-Jul-20 02:00N 15°24' W 169°48'8 8.3 080 / 151011.9 27.4
2017-Jul-20 01:00N 15°30' W 169°54'8 8.3 090 / 161012.2 27.5
2017-Jul-20 00:00N 15°36' W 170°00'0 0.0 090 / 181012.4 27.5
2017-Jul-19 23:00N 15°36' W 170°00'0 0.0 090 / 171013.0 27.4
2017-Jul-19 22:00N 15°36' W 170°00'0 0.0 100 / 171013.2 27.4
2017-Jul-19 21:00N 15°36' W 170°00'0 0.0 110 / 181013.2 27.4
2017-Jul-19 20:00N 15°36' W 170°00'6 5.8 110 / 211013.0 27.4
2017-Jul-19 19:00N 15°36' W 170°06'6 5.8 080 / 151013.3 27.4
2017-Jul-19 18:00N 15°36' W 170°00'8 8.3 090 / 161012.8 27.4
2017-Jul-19 17:00N 15°30' W 169°54'1211.6 080 / 161012.3 27.4
2017-Jul-19 16:00N 15°30' W 169°42'8 8.3 070 / 151012.0 27.3
2017-Jul-19 15:00N 15°36' W 169°48'8 8.3 070 / 181011.7 27.4
2017-Jul-19 14:00N 15°42' W 169°54'6 5.8 070 / 211011.8 27.4
2017-Jul-19 13:00N 15°42' W 170°00'6 5.8 080 / 151012.4 27.4
2017-Jul-19 12:00N 15°42' W 169°54'1313.0 090 / 151012.8 27.4
2017-Jul-19 11:00N 15°36' W 169°42'6 5.8 090 / 151013.3 27.5
2017-Jul-19 10:00N 15°36' W 169°36'8 8.3 080 / 141013.5 27.5
2017-Jul-19 09:00N 15°42' W 169°42'1211.6 080 / 181013.0 27.5
2017-Jul-19 08:00N 15°42' W 169°54'8 8.3 070 / 161012.9 27.5
2017-Jul-19 07:00N 15°48' W 170°00'6 5.8 080 / 131012.8 27.7
2017-Jul-19 06:00N 15°48' W 169°54'1313.0 080 / 131012.4 27.5
2017-Jul-19 05:00N 15°42' W 169°42'6 5.8 090 / 121011.9 27.6
2017-Jul-19 04:00N 15°42' W 169°36'1211.6 080 / 121011.9 27.6
2017-Jul-19 03:00N 15°42' W 169°24'6 5.8 100 / 131011.9 27.6
2017-Jul-19 02:00N 15°42' W 169°30'0 0.0 080 / 141012.2 27.6
2017-Jul-19 01:00N 15°42' W 169°30'0 0.0 070 / 131012.6 27.6
2017-Jul-19 00:00N 15°42' W 169°30'0 0.0 080 / 111013.2 27.5
2017-Jul-18 23:00N 15°42' W 169°30'0 0.0 070 / 141013.4 27.4
2017-Jul-18 22:00N 15°42' W 169°30'0 0.0 090 / 141013.9 27.4
2017-Jul-18 21:00N 15°42' W 169°30'0 0.0 080 / 151014.2 27.4
2017-Jul-18 20:00N 15°42' W 169°30'0 0.0 090 / 151013.8 27.4
2017-Jul-18 19:00N 15°42' W 169°30'0 0.0 070 / 181013.4 27.4
2017-Jul-18 18:00N 15°42' W 169°30'0 0.0 070 / 151013.2 27.4
2017-Jul-18 17:00N 15°42' W 169°30'0 0.0 060 / 141012.7 27.4
2017-Jul-18 16:00N 15°42' W 169°30'8 8.3 090 / 161011.9 27.4
2017-Jul-18 15:00N 15°36' W 169°36'8 8.3 090 / 171011.9 27.4
2017-Jul-18 14:00N 15°30' W 169°42'1313.0 060 / 171012.0 27.4
2017-Jul-18 13:00N 15°36' W 169°54'8 8.3 060 / 151012.6 27.4
2017-Jul-18 12:00N 15°42' W 170°00'6 6.0 060 / 161013.2 27.4
2017-Jul-18 11:00N 15°48' W 170°00'6 6.0 070 / 141013.9 27.5
2017-Jul-18 10:00N 15°54' W 170°00'8 8.3 070 / 141014.4 27.6
2017-Jul-18 09:00N 16°00' W 169°54'8 8.3 080 / 131014.4 27.6
2017-Jul-18 08:00N 16°06' W 169°48'8 8.3 080 / 121014.1 27.6
2017-Jul-18 07:00N 16°12' W 169°42'6 5.8 070 / 121013.8 27.7
2017-Jul-18 06:00N 16°12' W 169°36'0 0.0 080 / 111013.3 27.7
2017-Jul-18 05:00N 16°12' W 169°36'0 0.0 080 / 131012.8 27.7
2017-Jul-18 04:00N 16°12' W 169°36'0 0.0 070 / 131012.6 27.7
2017-Jul-18 03:00N 16°12' W 169°36'0 0.0 080 / 121012.8 27.7
2017-Jul-18 02:00N 16°12' W 169°36'0 0.0 100 / 121013.1 27.7
2017-Jul-18 01:00N 16°12' W 169°36'0 0.0 080 / 131013.3 27.6
2017-Jul-18 00:00N 16°12' W 169°36'0 0.0 080 / 121013.8 27.6
2017-Jul-17 23:00N 16°12' W 169°36'0 0.0 080 / 131014.1 27.5
2017-Jul-17 22:00N 16°12' W 169°36'0 0.0 090 / 111014.3 27.5
2017-Jul-17 21:00N 16°12' W 169°36'0 0.0 090 / 111014.6 27.5
2017-Jul-17 20:00N 16°12' W 169°36'0 0.0 090 / 131014.6 27.5
2017-Jul-17 19:00N 16°12' W 169°36'0 0.0 090 / 121014.3 27.5
2017-Jul-17 18:00N 16°12' W 169°36'0 0.0 100 / 111014.2 27.5
2017-Jul-17 17:00N 16°12' W 169°36'0 0.0 110 / 131013.7 27.5
2017-Jul-17 16:00N 16°12' W 169°36'8 8.3 100 / 121013.6 27.5
2017-Jul-17 15:00N 16°06' W 169°30'8 8.3 110 / 121013.7 27.4
2017-Jul-17 14:00N 16°00' W 169°24'8 8.3 100 / 131013.8 27.4
2017-Jul-17 13:00N 15°54' W 169°18'1313.0 100 / 131014.2 27.3
2017-Jul-17 12:00N 15°48' W 169°06'8 8.3 100 / 141014.6 27.3
2017-Jul-17 11:00N 15°42' W 169°00'8 8.3 100 / 141015.1 27.4
2017-Jul-17 10:00N 15°48' W 168°54'8 8.3 090 / 151015.1 27.4
2017-Jul-17 09:00N 15°42' W 168°48'8 8.3 110 / 221014.5 27.4
2017-Jul-17 08:00N 15°36' W 168°54'6 6.0 080 / 221014.0 27.4
2017-Jul-17 07:00N 15°42' W 168°54'8 8.3 090 / 161014.0 27.4
2017-Jul-17 06:00N 15°48' W 168°48'8 8.3 110 / 191013.3 27.4
2017-Jul-17 05:00N 15°42' W 168°54'6 5.8 110 / 191012.8 27.5
2017-Jul-17 04:00N 15°42' W 169°00'1313.0 070 / 171012.4 27.4
2017-Jul-17 03:00N 15°48' W 169°12'8 8.3 070 / 171012.6 27.4
2017-Jul-17 02:00N 15°54' W 169°18'8 8.3 080 / 191012.8 27.4
2017-Jul-17 01:00N 16°00' W 169°24'6 6.0 080 / 191013.1 27.4
2017-Jul-17 00:00N 16°06' W 169°24'6 6.0 080 / 171014.0 27.5
2017-Jul-16 23:00N 16°12' W 169°24'1212.0 090 / 181014.5 27.4
2017-Jul-16 22:00N 16°24' W 169°24'6 6.0 100 / 201014.5 27.4
2017-Jul-16 21:00N 16°30' W 169°24'1313.3 090 / 191014.6 27.5
2017-Jul-16 20:00N 16°42' W 169°18'6 5.7 090 / 181014.6 27.6
2017-Jul-16 19:00N 16°42' W 169°24'0 0.0 100 / 181014.2 27.6
2017-Jul-16 18:00N 16°42' W 169°24'6 5.7 100 / 181013.9 27.6
2017-Jul-16 17:00N 16°42' W 169°18'8 8.3 100 / 181013.3 27.6
2017-Jul-16 16:00N 16°48' W 169°24'1111.5 100 / 191012.7 27.5
2017-Jul-16 15:00N 16°48' W 169°36'6 5.7 090 / 191012.7 27.7
2017-Jul-16 14:00N 16°48' W 169°42'1212.0 090 / 201013.0 27.7
2017-Jul-16 13:00N 17°00' W 169°42'1212.0 090 / 221013.3 27.8
2017-Jul-16 12:00N 17°12' W 169°42'6 5.7 100 / 151014.2 27.8
2017-Jul-16 11:00N 17°12' W 169°36'1111.5 100 / 141014.6 27.8
2017-Jul-16 10:00N 17°12' W 169°24'1111.5 090 / 151015.1 27.8
2017-Jul-16 09:00N 17°12' W 169°12'8 8.3 090 / 131014.9 27.7
2017-Jul-16 08:00N 17°06' W 169°06'1212.0 100 / 191014.3 27.7
2017-Jul-16 07:00N 16°54' W 169°06'8 8.3 100 / 201013.7 27.8
2017-Jul-16 06:00N 16°48' W 169°00'1313.0 100 / 181013.3 27.7
2017-Jul-16 05:00N 16°42' W 169°12'6 5.7 100 / 171012.7 27.8
2017-Jul-16 04:00N 16°42' W 169°18'6 5.7 080 / 161012.4 27.9
2017-Jul-16 03:00N 16°42' W 169°24'0 0.0 080 / 151012.8 27.7
2017-Jul-16 02:00N 16°42' W 169°24'0 0.0 090 / 171012.8 27.8
2017-Jul-16 01:00N 16°42' W 169°24'0 0.0 100 / 141013.3 27.9
2017-Jul-16 00:00N 16°42' W 169°24'0 0.0 080 / 161013.7 27.8
2017-Jul-15 23:00N 16°42' W 169°24'0 0.0 080 / 151014.0 27.8
2017-Jul-15 22:00N 16°42' W 169°24'0 0.0 100 / 141014.4 27.7
2017-Jul-15 21:00N 16°42' W 169°24'0 0.0 090 / 131014.5 27.6
2017-Jul-15 20:00N 16°42' W 169°24'0 0.0 080 / 171014.1 27.6
2017-Jul-15 19:00N 16°42' W 169°24'0 0.0 070 / 161013.7 27.6
2017-Jul-15 18:00N 16°42' W 169°24'6 6.0 080 / 181013.3 27.5
2017-Jul-15 17:00N 16°48' W 169°24'0 0.0 080 / 191013.2 27.5
2017-Jul-15 16:00N 16°48' W 169°24'1111.5 080 / 171012.8 27.7
2017-Jul-15 15:00N 16°48' W 169°36'6 6.0 100 / 151012.7 27.7
2017-Jul-15 14:00N 16°54' W 169°36'1313.3 080 / 171013.0 27.8
2017-Jul-15 13:00N 17°06' W 169°42'8 8.3 070 / 161013.7 27.7
2017-Jul-15 12:00N 17°12' W 169°36'1212.0 080 / 141014.4 27.8
2017-Jul-15 11:00N 17°24' W 169°36'6 6.0 080 / 151015.0 27.7
2017-Jul-15 10:00N 17°30' W 169°36'1212.0 070 / 151015.2 27.7
2017-Jul-15 09:00N 17°42' W 169°36'8 8.3 070 / 161015.0 27.4
2017-Jul-15 08:00N 17°48' W 169°42'8 8.3 060 / 161014.8 27.5
2017-Jul-15 07:00N 17°54' W 169°48'1313.3 080 / 141014.6 27.7
2017-Jul-15 06:00N 18°06' W 169°42'6 6.0 080 / 151014.3 27.8
2017-Jul-15 05:00N 18°12' W 169°42'0 0.0 060 / 141013.8 27.9
2017-Jul-15 04:00N 18°12' W 169°42'0 0.0 120 / 171013.7 27.9
2017-Jul-15 03:00N 18°12' W 169°42'0 0.0 080 / 151014.0 28.0
2017-Jul-15 02:00N 18°12' W 169°42'0 0.0 090 / 171014.1 27.9
2017-Jul-15 01:00N 18°12' W 169°42'0 0.0 090 / 171014.6 27.9
2017-Jul-15 00:00N 18°12' W 169°42'0 0.0 100 / 141015.0 27.9
2017-Jul-14 23:00N 18°12' W 169°42'6 6.0 110 / 131015.4 27.8
2017-Jul-14 22:00N 18°06' W 169°42'0 0.0 110 / 131015.6 27.7
2017-Jul-14 21:00N 18°06' W 169°42'0 0.0 100 / 151015.4 27.7
2017-Jul-14 20:00N 18°06' W 169°42'0 0.0 100 / 141015.3 27.6
2017-Jul-14 19:00N 18°06' W 169°42'0 0.0 080 / 121015.1 27.6
2017-Jul-14 18:00N 18°06' W 169°42'0 0.0 080 / 141014.7 27.6
2017-Jul-14 17:00N 18°06' W 169°42'0 0.0 080 / 121014.2 27.6
2017-Jul-14 16:00N 18°06' W 169°42'8 8.3 060 / 151014.1 27.6
2017-Jul-14 15:00N 18°12' W 169°48'1716.5 080 / 121014.4 27.7
2017-Jul-14 14:00N 18°24' W 169°36'6 6.0 090 / 131014.6 27.7
2017-Jul-14 13:00N 18°30' W 169°36'1212.0 080 / 141014.8 27.6
2017-Jul-14 12:00N 18°42' W 169°36'8 8.3 080 / 131015.6 27.6
2017-Jul-14 11:00N 18°48' W 169°30'1313.3 080 / 131016.0 27.7
2017-Jul-14 10:00N 19°00' W 169°24'1313.3 070 / 141016.3 27.8
2017-Jul-14 09:00N 19°12' W 169°18'6 5.7 080 / 121016.1 27.9
2017-Jul-14 08:00N 19°12' W 169°12'1312.8 070 / 121015.7 28.0
2017-Jul-14 07:00N 19°18' W 169°00'1312.8 070 / 121015.4 27.8
2017-Jul-14 06:00N 19°24' W 168°48'1312.8 060 / 111015.0 27.8
2017-Jul-14 05:00N 19°30' W 168°36'8 8.2 070 / 131014.8 27.8
2017-Jul-14 04:00N 19°36' W 168°30'6 5.7 070 / 121014.8 27.9
2017-Jul-14 03:00N 19°36' W 168°24'0 0.0 060 / 111014.9 27.8
2017-Jul-14 02:00N 19°36' W 168°24'0 0.0 060 / 121015.3 27.8
2017-Jul-14 01:00N 19°36' W 168°24'0 0.0 040 / 121015.6 27.8
2017-Jul-14 00:00N 19°36' W 168°24'0 0.0 040 / 121016.0 27.7
2017-Jul-13 23:00N 19°36' W 168°24'0 0.0 050 / 121016.5 27.7
2017-Jul-13 22:00N 19°36' W 168°24'6 6.0 060 / 121016.7 27.6
2017-Jul-13 21:00N 19°30' W 168°24'0 0.0 070 / 121016.6 27.5
2017-Jul-13 20:00N 19°30' W 168°24'0 0.0 070 / 111016.5 27.5
2017-Jul-13 19:00N 19°30' W 168°24'0 0.0 050 / 131016.3 27.5
2017-Jul-13 18:00N 19°30' W 168°24'0 0.0 060 / 121016.0 27.5
2017-Jul-13 17:00N 19°30' W 168°24'6 6.0 060 / 121015.7 27.5
2017-Jul-13 16:00N 19°36' W 168°24'1313.3 090 / 151015.5 27.5
2017-Jul-13 15:00N 19°24' W 168°18'6 5.7 080 / 131015.5 27.5
2017-Jul-13 14:00N 19°24' W 168°12'1312.8 080 / 111015.7 27.5
2017-Jul-13 13:00N 19°30' W 168°00'1312.8 080 / 141016.0 27.5
2017-Jul-13 12:00N 19°36' W 167°48'8 8.2 080 / 121016.5 27.6
2017-Jul-13 11:00N 19°42' W 167°42'1312.8 080 / 131016.8 27.6
2017-Jul-13 10:00N 19°48' W 167°30'1111.3 080 / 121016.9 27.7
2017-Jul-13 09:00N 19°48' W 167°18'8 8.2 060 / 111016.8 27.8
2017-Jul-13 08:00N 19°54' W 167°12'1312.8 070 / 131016.5 27.8
2017-Jul-13 07:00N 20°00' W 167°00'1111.3 080 / 111016.3 27.8
2017-Jul-13 06:00N 20°00' W 166°48'1312.8 090 / 91016.0 27.9
2017-Jul-13 05:00N 20°06' W 166°36'8 8.2 070 / 111015.6 27.9
2017-Jul-13 04:00N 20°00' W 166°30'1111.3 080 / 111015.4 28.0
2017-Jul-13 03:00N 20°00' W 166°18'1312.8 070 / 121015.4 28.0
2017-Jul-13 02:00N 19°54' W 166°06'1312.8 080 / 121015.4 27.9
2017-Jul-13 01:00N 20°00' W 165°54'6 5.6 090 / 121015.6 27.8
2017-Jul-13 00:00N 20°00' W 165°48'6 5.6 100 / 121015.9 27.8
2017-Jul-12 23:00N 20°00' W 165°42'1111.3 090 / 121016.1 27.8
2017-Jul-12 22:00N 20°00' W 165°30'1312.8 090 / 131016.4 27.7
2017-Jul-12 21:00N 20°06' W 165°18'1111.3 090 / 121016.5 27.6
2017-Jul-12 20:00N 20°06' W 165°06'1111.3 100 / 121016.2 27.6
2017-Jul-12 19:00N 20°06' W 164°54'1312.8 090 / 121016.1 27.6
2017-Jul-12 18:00N 20°12' W 164°42'1111.3 100 / 121016.0 27.6
2017-Jul-12 17:00N 20°12' W 164°30'1111.3 100 / 121015.5 27.6
2017-Jul-12 16:00N 20°12' W 164°18'8 8.2 100 / 131015.1 27.6
2017-Jul-12 15:00N 20°18' W 164°12'1111.3 100 / 131015.1 27.6
2017-Jul-12 14:00N 20°18' W 164°00'1111.3 100 / 131015.4 27.7
2017-Jul-12 13:00N 20°18' W 163°48'1111.3 100 / 131015.8 27.6
2017-Jul-12 12:00N 20°18' W 163°36'1312.8 100 / 121016.1 27.6
2017-Jul-12 11:00N 20°24' W 163°24'1111.2 100 / 121016.6 27.6
2017-Jul-12 10:00N 20°24' W 163°12'6 5.6 100 / 121016.9 27.6
2017-Jul-12 09:00N 20°24' W 163°06'1312.7 100 / 111016.8 27.7
2017-Jul-12 08:00N 20°30' W 162°54'1111.2 100 / 111016.2 27.7
2017-Jul-12 07:00N 20°30' W 162°42'1111.2 100 / 101015.8 27.8
2017-Jul-12 06:00N 20°30' W 162°30'1312.7 100 / 101015.5 27.9
2017-Jul-12 05:00N 20°36' W 162°18'6 5.6 100 / 111015.1 27.8
2017-Jul-12 04:00N 20°36' W 162°12'1111.2 090 / 101015.0 27.9
2017-Jul-12 03:00N 20°36' W 162°00'1111.2 100 / 91015.1 27.9
2017-Jul-12 02:00N 20°36' W 161°48'1312.7 080 / 101015.3 28.0
2017-Jul-12 01:00N 20°42' W 161°36'1111.2 090 / 101015.5 27.9
2017-Jul-12 00:00N 20°42' W 161°24'6 5.6 100 / 81015.6 27.7
2017-Jul-11 23:00N 20°42' W 161°18'1312.7 090 / 91015.9 27.3
2017-Jul-11 22:00N 20°48' W 161°06'1111.2 100 / 101015.9 27.2
2017-Jul-11 21:00N 20°48' W 160°54'1111.2 100 / 111015.8 27.2
2017-Jul-11 20:00N 20°48' W 160°42'8 8.2 100 / 101015.7 27.1
2017-Jul-11 19:00N 20°54' W 160°36'1111.2 100 / 101015.6 27.2
2017-Jul-11 18:00N 20°54' W 160°24'1111.2 100 / 111015.3 26.9
2017-Jul-11 17:00N 20°54' W 160°12'129128.9 100 / 101015.0 27.0
2017-Jul-11 16:00N 20°54' W 157°54'107106.6 110 / 91011.6 5.4 26.023.126.9
2017-Jul-11 15:00N 21°00' W 159°48'1111.2 100 / 91014.5 27.1
2017-Jul-11 14:00N 21°00' W 159°36'1111.2 100 / 101014.6 27.0
2017-Jul-11 13:00N 21°00' W 159°24'6 5.6 090 / 111014.7 27.0
2017-Jul-11 12:00N 21°00' W 159°18'1312.7 090 / 121015.1 27.1
2017-Jul-11 11:00N 21°06' W 159°06'1111.2 090 / 131015.4 27.2
2017-Jul-11 10:00N 21°06' W 158°54'1111.2 090 / 121015.7 27.0
2017-Jul-11 09:00N 21°06' W 158°42'1312.7 070 / 101015.8 26.8
2017-Jul-11 08:00N 21°12' W 158°30'1111.2 070 / 121015.2 26.9
2017-Jul-11 07:00N 21°12' W 158°18'1111.2 070 / 121014.9 27.0
2017-Jul-11 06:00N 21°12' W 158°06'1111.2 050 / 121014.6 27.0
2017-Jul-11 05:00N 21°12' W 157°54'6 6.0 070 / 131014.2 26.8
2017-Jul-11 04:00N 21°18' W 157°54'6 5.6 050 / 181013.7 26.8
2017-Jul-11 03:00N 21°18' W 158°00'0 0.0 090 / 171013.5 27.0
2017-Jul-11 02:00N 21°18' W 158°00'   080 / 171013.5 26.9
Track history (hours):
 
Tides and Currents Weather Stations Pressure Air Temp Water Temp Dewpoint Dewpoint Depression Visibility Wind Speed Wind Dir Waves Ship Positions

Oceanographic research ship Okeanos Explorer (USA)

Ship's website: http://oceanexplorer.noaa.gov/okeanos/

Last reported at 2017-Jul-21 02:00 UTC. Time now 2017-Jul-21 02:37 UTC.
Position N 15°42' W 171°12'.

Length 69 m; draft 5 m.

Type: Other ship. MMSI: 369888000.

Wind from 090 at 13 knots

Barometer 1012.4 mb
Water temperature 27.8 ° C

Date/timePositionNaut miles runAvg speedWind from/ knotsBaromVisibWave heightAir tempDewpointWater temp
2017-Jul-21 02:00N 15°42' W 171°12'6 5.8 090 / 131012.4 27.8
2017-Jul-21 01:00N 15°42' W 171°06'8 8.3 100 / 161012.8 27.8
2017-Jul-21 00:00N 15°48' W 171°00'8 8.3 100 / 151013.3 27.7
2017-Jul-20 23:00N 15°42' W 171°06'8 8.3 120 / 211013.3 27.7
2017-Jul-20 22:00N 15°36' W 171°12'6 5.8 110 / 201013.6 27.6
2017-Jul-20 21:00N 15°36' W 171°18'6 6.0 110 / 191013.5 27.5
2017-Jul-20 20:00N 15°30' W 171°18'6 5.8 100 / 161013.5 27.6
2017-Jul-20 19:00N 15°30' W 171°12'8 8.3 090 / 161013.3 27.5
2017-Jul-20 18:00N 15°36' W 171°06'8 8.3 090 / 131013.0 27.6
2017-Jul-20 17:00N 15°42' W 171°00'6 5.8 090 / 151012.6 27.6
2017-Jul-20 16:00N 15°42' W 170°54'8 8.3 110 / 151012.3 27.6
2017-Jul-20 15:00N 15°36' W 170°48'1313.0 100 / 161012.3 27.5
2017-Jul-20 14:00N 15°30' W 170°36'8 8.3 100 / 151012.4 27.4
2017-Jul-20 13:00N 15°24' W 170°30'6 5.8 100 / 161012.4 27.4
2017-Jul-20 12:00N 15°24' W 170°24'8 8.3 090 / 161013.0 27.4
2017-Jul-20 11:00N 15°30' W 170°18'8 8.3 090 / 151013.6 27.4
2017-Jul-20 10:00N 15°36' W 170°12'6 6.0 090 / 161013.9 27.4
2017-Jul-20 09:00N 15°42' W 170°12'8 8.3 090 / 181013.6 27.4
2017-Jul-20 08:00N 15°48' W 170°06'0 0.0 090 / 161013.3 27.5
2017-Jul-20 07:00N 15°48' W 170°06'6 6.0 110 / 201012.8 27.5
2017-Jul-20 06:00N 15°42' W 170°06'8 8.3 110 / 171012.0 27.5
2017-Jul-20 05:00N 15°36' W 170°12'1313.0 090 / 141011.9 27.5
2017-Jul-20 04:00N 15°30' W 170°00'8 8.3 100 / 161011.6 27.6
2017-Jul-20 03:00N 15°24' W 169°54'6 5.8 110 / 151011.8 27.5
2017-Jul-20 02:00N 15°24' W 169°48'8 8.3 080 / 151011.9 27.4
2017-Jul-20 01:00N 15°30' W 169°54'8 8.3 090 / 161012.2 27.5
2017-Jul-20 00:00N 15°36' W 170°00'0 0.0 090 / 181012.4 27.5
2017-Jul-19 23:00N 15°36' W 170°00'0 0.0 090 / 171013.0 27.4
2017-Jul-19 22:00N 15°36' W 170°00'0 0.0 100 / 171013.2 27.4
2017-Jul-19 21:00N 15°36' W 170°00'0 0.0 110 / 181013.2 27.4
2017-Jul-19 20:00N 15°36' W 170°00'6 5.8 110 / 211013.0 27.4
2017-Jul-19 19:00N 15°36' W 170°06'6 5.8 080 / 151013.3 27.4
2017-Jul-19 18:00N 15°36' W 170°00'8 8.3 090 / 161012.8 27.4
2017-Jul-19 17:00N 15°30' W 169°54'1211.6 080 / 161012.3 27.4
2017-Jul-19 16:00N 15°30' W 169°42'8 8.3 070 / 151012.0 27.3
2017-Jul-19 15:00N 15°36' W 169°48'8 8.3 070 / 181011.7 27.4
2017-Jul-19 14:00N 15°42' W 169°54'6 5.8 070 / 211011.8 27.4
2017-Jul-19 13:00N 15°42' W 170°00'6 5.8 080 / 151012.4 27.4
2017-Jul-19 12:00N 15°42' W 169°54'1313.0 090 / 151012.8 27.4
2017-Jul-19 11:00N 15°36' W 169°42'6 5.8 090 / 151013.3 27.5
2017-Jul-19 10:00N 15°36' W 169°36'8 8.3 080 / 141013.5 27.5
2017-Jul-19 09:00N 15°42' W 169°42'1211.6 080 / 181013.0 27.5
2017-Jul-19 08:00N 15°42' W 169°54'8 8.3 070 / 161012.9 27.5
2017-Jul-19 07:00N 15°48' W 170°00'6 5.8 080 / 131012.8 27.7
2017-Jul-19 06:00N 15°48' W 169°54'1313.0 080 / 131012.4 27.5
2017-Jul-19 05:00N 15°42' W 169°42'6 5.8 090 / 121011.9 27.6
2017-Jul-19 04:00N 15°42' W 169°36'1211.6 080 / 121011.9 27.6
2017-Jul-19 03:00N 15°42' W 169°24'6 5.8 100 / 131011.9 27.6
2017-Jul-19 02:00N 15°42' W 169°30'0 0.0 080 / 141012.2 27.6
2017-Jul-19 01:00N 15°42' W 169°30'0 0.0 070 / 131012.6 27.6
2017-Jul-19 00:00N 15°42' W 169°30'0 0.0 080 / 111013.2 27.5
2017-Jul-18 23:00N 15°42' W 169°30'0 0.0 070 / 141013.4 27.4
2017-Jul-18 22:00N 15°42' W 169°30'0 0.0 090 / 141013.9 27.4
2017-Jul-18 21:00N 15°42' W 169°30'0 0.0 080 / 151014.2 27.4
2017-Jul-18 20:00N 15°42' W 169°30'0 0.0 090 / 151013.8 27.4
2017-Jul-18 19:00N 15°42' W 169°30'0 0.0 070 / 181013.4 27.4
2017-Jul-18 18:00N 15°42' W 169°30'0 0.0 070 / 151013.2 27.4
2017-Jul-18 17:00N 15°42' W 169°30'0 0.0 060 / 141012.7 27.4
2017-Jul-18 16:00N 15°42' W 169°30'8 8.3 090 / 161011.9 27.4
2017-Jul-18 15:00N 15°36' W 169°36'8 8.3 090 / 171011.9 27.4
2017-Jul-18 14:00N 15°30' W 169°42'1313.0 060 / 171012.0 27.4
2017-Jul-18 13:00N 15°36' W 169°54'8 8.3 060 / 151012.6 27.4
2017-Jul-18 12:00N 15°42' W 170°00'6 6.0 060 / 161013.2 27.4
2017-Jul-18 11:00N 15°48' W 170°00'6 6.0 070 / 141013.9 27.5
2017-Jul-18 10:00N 15°54' W 170°00'8 8.3 070 / 141014.4 27.6
2017-Jul-18 09:00N 16°00' W 169°54'8 8.3 080 / 131014.4 27.6
2017-Jul-18 08:00N 16°06' W 169°48'8 8.3 080 / 121014.1 27.6
2017-Jul-18 07:00N 16°12' W 169°42'6 5.8 070 / 121013.8 27.7
2017-Jul-18 06:00N 16°12' W 169°36'0 0.0 080 / 111013.3 27.7
2017-Jul-18 05:00N 16°12' W 169°36'0 0.0 080 / 131012.8 27.7
2017-Jul-18 04:00N 16°12' W 169°36'0 0.0 070 / 131012.6 27.7
2017-Jul-18 03:00N 16°12' W 169°36'0 0.0 080 / 121012.8 27.7
2017-Jul-18 02:00N 16°12' W 169°36'0 0.0 100 / 121013.1 27.7
2017-Jul-18 01:00N 16°12' W 169°36'0 0.0 080 / 131013.3 27.6
2017-Jul-18 00:00N 16°12' W 169°36'0 0.0 080 / 121013.8 27.6
2017-Jul-17 23:00N 16°12' W 169°36'0 0.0 080 / 131014.1 27.5
2017-Jul-17 22:00N 16°12' W 169°36'0 0.0 090 / 111014.3 27.5
2017-Jul-17 21:00N 16°12' W 169°36'0 0.0 090 / 111014.6 27.5
2017-Jul-17 20:00N 16°12' W 169°36'0 0.0 090 / 131014.6 27.5
2017-Jul-17 19:00N 16°12' W 169°36'0 0.0 090 / 121014.3 27.5
2017-Jul-17 18:00N 16°12' W 169°36'0 0.0 100 / 111014.2 27.5
2017-Jul-17 17:00N 16°12' W 169°36'0 0.0 110 / 131013.7 27.5
2017-Jul-17 16:00N 16°12' W 169°36'8 8.3 100 / 121013.6 27.5
2017-Jul-17 15:00N 16°06' W 169°30'8 8.3 110 / 121013.7 27.4
2017-Jul-17 14:00N 16°00' W 169°24'8 8.3 100 / 131013.8 27.4
2017-Jul-17 13:00N 15°54' W 169°18'1313.0 100 / 131014.2 27.3
2017-Jul-17 12:00N 15°48' W 169°06'8 8.3 100 / 141014.6 27.3
2017-Jul-17 11:00N 15°42' W 169°00'8 8.3 100 / 141015.1 27.4
2017-Jul-17 10:00N 15°48' W 168°54'8 8.3 090 / 151015.1 27.4
2017-Jul-17 09:00N 15°42' W 168°48'8 8.3 110 / 221014.5 27.4
2017-Jul-17 08:00N 15°36' W 168°54'6 6.0 080 / 221014.0 27.4
2017-Jul-17 07:00N 15°42' W 168°54'8 8.3 090 / 161014.0 27.4
2017-Jul-17 06:00N 15°48' W 168°48'8 8.3 110 / 191013.3 27.4
2017-Jul-17 05:00N 15°42' W 168°54'6 5.8 110 / 191012.8 27.5
2017-Jul-17 04:00N 15°42' W 169°00'1313.0 070 / 171012.4 27.4
2017-Jul-17 03:00N 15°48' W 169°12'8 8.3 070 / 171012.6 27.4
2017-Jul-17 02:00N 15°54' W 169°18'8 8.3 080 / 191012.8 27.4
2017-Jul-17 01:00N 16°00' W 169°24'6 6.0 080 / 191013.1 27.4
2017-Jul-17 00:00N 16°06' W 169°24'6 6.0 080 / 171014.0 27.5
2017-Jul-16 23:00N 16°12' W 169°24'1212.0 090 / 181014.5 27.4
2017-Jul-16 22:00N 16°24' W 169°24'6 6.0 100 / 201014.5 27.4
2017-Jul-16 21:00N 16°30' W 169°24'1313.3 090 / 191014.6 27.5
2017-Jul-16 20:00N 16°42' W 169°18'6 5.7 090 / 181014.6 27.6
2017-Jul-16 19:00N 16°42' W 169°24'0 0.0 100 / 181014.2 27.6
2017-Jul-16 18:00N 16°42' W 169°24'6 5.7 100 / 181013.9 27.6
2017-Jul-16 17:00N 16°42' W 169°18'8 8.3 100 / 181013.3 27.6
2017-Jul-16 16:00N 16°48' W 169°24'1111.5 100 / 191012.7 27.5
2017-Jul-16 15:00N 16°48' W 169°36'6 5.7 090 / 191012.7 27.7
2017-Jul-16 14:00N 16°48' W 169°42'1212.0 090 / 201013.0 27.7
2017-Jul-16 13:00N 17°00' W 169°42'1212.0 090 / 221013.3 27.8
2017-Jul-16 12:00N 17°12' W 169°42'6 5.7 100 / 151014.2 27.8
2017-Jul-16 11:00N 17°12' W 169°36'1111.5 100 / 141014.6 27.8
2017-Jul-16 10:00N 17°12' W 169°24'1111.5 090 / 151015.1 27.8
2017-Jul-16 09:00N 17°12' W 169°12'8 8.3 090 / 131014.9 27.7
2017-Jul-16 08:00N 17°06' W 169°06'1212.0 100 / 191014.3 27.7
2017-Jul-16 07:00N 16°54' W 169°06'8 8.3 100 / 201013.7 27.8
2017-Jul-16 06:00N 16°48' W 169°00'1313.0 100 / 181013.3 27.7
2017-Jul-16 05:00N 16°42' W 169°12'6 5.7 100 / 171012.7 27.8
2017-Jul-16 04:00N 16°42' W 169°18'6 5.7 080 / 161012.4 27.9
2017-Jul-16 03:00N 16°42' W 169°24'0 0.0 080 / 151012.8 27.7
2017-Jul-16 02:00N 16°42' W 169°24'0 0.0 090 / 171012.8 27.8
2017-Jul-16 01:00N 16°42' W 169°24'0 0.0 100 / 141013.3 27.9
2017-Jul-16 00:00N 16°42' W 169°24'0 0.0 080 / 161013.7 27.8
2017-Jul-15 23:00N 16°42' W 169°24'0 0.0 080 / 151014.0 27.8
2017-Jul-15 22:00N 16°42' W 169°24'0 0.0 100 / 141014.4 27.7
2017-Jul-15 21:00N 16°42' W 169°24'0 0.0 090 / 131014.5 27.6
2017-Jul-15 20:00N 16°42' W 169°24'0 0.0 080 / 171014.1 27.6
2017-Jul-15 19:00N 16°42' W 169°24'0 0.0 070 / 161013.7 27.6
2017-Jul-15 18:00N 16°42' W 169°24'6 6.0 080 / 181013.3 27.5
2017-Jul-15 17:00N 16°48' W 169°24'0 0.0 080 / 191013.2 27.5
2017-Jul-15 16:00N 16°48' W 169°24'1111.5 080 / 171012.8 27.7
2017-Jul-15 15:00N 16°48' W 169°36'6 6.0 100 / 151012.7 27.7
2017-Jul-15 14:00N 16°54' W 169°36'1313.3 080 / 171013.0 27.8
2017-Jul-15 13:00N 17°06' W 169°42'8 8.3 070 / 161013.7 27.7
2017-Jul-15 12:00N 17°12' W 169°36'1212.0 080 / 141014.4 27.8
2017-Jul-15 11:00N 17°24' W 169°36'6 6.0 080 / 151015.0 27.7
2017-Jul-15 10:00N 17°30' W 169°36'1212.0 070 / 151015.2 27.7
2017-Jul-15 09:00N 17°42' W 169°36'8 8.3 070 / 161015.0 27.4
2017-Jul-15 08:00N 17°48' W 169°42'8 8.3 060 / 161014.8 27.5
2017-Jul-15 07:00N 17°54' W 169°48'1313.3 080 / 141014.6 27.7
2017-Jul-15 06:00N 18°06' W 169°42'6 6.0 080 / 151014.3 27.8
2017-Jul-15 05:00N 18°12' W 169°42'0 0.0 060 / 141013.8 27.9
2017-Jul-15 04:00N 18°12' W 169°42'0 0.0 120 / 171013.7 27.9
2017-Jul-15 03:00N 18°12' W 169°42'0 0.0 080 / 151014.0 28.0
2017-Jul-15 02:00N 18°12' W 169°42'0 0.0 090 / 171014.1 27.9
2017-Jul-15 01:00N 18°12' W 169°42'0 0.0 090 / 171014.6 27.9
2017-Jul-15 00:00N 18°12' W 169°42'0 0.0 100 / 141015.0 27.9
2017-Jul-14 23:00N 18°12' W 169°42'6 6.0 110 / 131015.4 27.8
2017-Jul-14 22:00N 18°06' W 169°42'0 0.0 110 / 131015.6 27.7
2017-Jul-14 21:00N 18°06' W 169°42'0 0.0 100 / 151015.4 27.7
2017-Jul-14 20:00N 18°06' W 169°42'0 0.0 100 / 141015.3 27.6
2017-Jul-14 19:00N 18°06' W 169°42'0 0.0 080 / 121015.1 27.6
2017-Jul-14 18:00N 18°06' W 169°42'0 0.0 080 / 141014.7 27.6
2017-Jul-14 17:00N 18°06' W 169°42'0 0.0 080 / 121014.2 27.6
2017-Jul-14 16:00N 18°06' W 169°42'8 8.3 060 / 151014.1 27.6
2017-Jul-14 15:00N 18°12' W 169°48'1716.5 080 / 121014.4 27.7
2017-Jul-14 14:00N 18°24' W 169°36'6 6.0 090 / 131014.6 27.7
2017-Jul-14 13:00N 18°30' W 169°36'1212.0 080 / 141014.8 27.6
2017-Jul-14 12:00N 18°42' W 169°36'8 8.3 080 / 131015.6 27.6
2017-Jul-14 11:00N 18°48' W 169°30'1313.3 080 / 131016.0 27.7
2017-Jul-14 10:00N 19°00' W 169°24'1313.3 070 / 141016.3 27.8
2017-Jul-14 09:00N 19°12' W 169°18'6 5.7 080 / 121016.1 27.9
2017-Jul-14 08:00N 19°12' W 169°12'1312.8 070 / 121015.7 28.0
2017-Jul-14 07:00N 19°18' W 169°00'1312.8 070 / 121015.4 27.8
2017-Jul-14 06:00N 19°24' W 168°48'1312.8 060 / 111015.0 27.8
2017-Jul-14 05:00N 19°30' W 168°36'8 8.2 070 / 131014.8 27.8
2017-Jul-14 04:00N 19°36' W 168°30'6 5.7 070 / 121014.8 27.9
2017-Jul-14 03:00N 19°36' W 168°24'0 0.0 060 / 111014.9 27.8
2017-Jul-14 02:00N 19°36' W 168°24'0 0.0 060 / 121015.3 27.8
2017-Jul-14 01:00N 19°36' W 168°24'0 0.0 040 / 121015.6 27.8
2017-Jul-14 00:00N 19°36' W 168°24'0 0.0 040 / 121016.0 27.7
2017-Jul-13 23:00N 19°36' W 168°24'0 0.0 050 / 121016.5 27.7
2017-Jul-13 22:00N 19°36' W 168°24'6 6.0 060 / 121016.7 27.6
2017-Jul-13 21:00N 19°30' W 168°24'0 0.0 070 / 121016.6 27.5
2017-Jul-13 20:00N 19°30' W 168°24'0 0.0 070 / 111016.5 27.5
2017-Jul-13 19:00N 19°30' W 168°24'0 0.0 050 / 131016.3 27.5
2017-Jul-13 18:00N 19°30' W 168°24'0 0.0 060 / 121016.0 27.5
2017-Jul-13 17:00N 19°30' W 168°24'6 6.0 060 / 121015.7 27.5
2017-Jul-13 16:00N 19°36' W 168°24'1313.3 090 / 151015.5 27.5
2017-Jul-13 15:00N 19°24' W 168°18'6 5.7 080 / 131015.5 27.5
2017-Jul-13 14:00N 19°24' W 168°12'1312.8 080 / 111015.7 27.5
2017-Jul-13 13:00N 19°30' W 168°00'1312.8 080 / 141016.0 27.5
2017-Jul-13 12:00N 19°36' W 167°48'8 8.2 080 / 121016.5 27.6
2017-Jul-13 11:00N 19°42' W 167°42'1312.8 080 / 131016.8 27.6
2017-Jul-13 10:00N 19°48' W 167°30'1111.3 080 / 121016.9 27.7
2017-Jul-13 09:00N 19°48' W 167°18'8 8.2 060 / 111016.8 27.8
2017-Jul-13 08:00N 19°54' W 167°12'1312.8 070 / 131016.5 27.8
2017-Jul-13 07:00N 20°00' W 167°00'1111.3 080 / 111016.3 27.8
2017-Jul-13 06:00N 20°00' W 166°48'1312.8 090 / 91016.0 27.9
2017-Jul-13 05:00N 20°06' W 166°36'8 8.2 070 / 111015.6 27.9
2017-Jul-13 04:00N 20°00' W 166°30'1111.3 080 / 111015.4 28.0
2017-Jul-13 03:00N 20°00' W 166°18'1312.8 070 / 121015.4 28.0
2017-Jul-13 02:00N 19°54' W 166°06'1312.8 080 / 121015.4 27.9
2017-Jul-13 01:00N 20°00' W 165°54'6 5.6 090 / 121015.6 27.8
2017-Jul-13 00:00N 20°00' W 165°48'6 5.6 100 / 121015.9 27.8
2017-Jul-12 23:00N 20°00' W 165°42'1111.3 090 / 121016.1 27.8
2017-Jul-12 22:00N 20°00' W 165°30'1312.8 090 / 131016.4 27.7
2017-Jul-12 21:00N 20°06' W 165°18'1111.3 090 / 121016.5 27.6
2017-Jul-12 20:00N 20°06' W 165°06'1111.3 100 / 121016.2 27.6
2017-Jul-12 19:00N 20°06' W 164°54'1312.8 090 / 121016.1 27.6
2017-Jul-12 18:00N 20°12' W 164°42'1111.3 100 / 121016.0 27.6
2017-Jul-12 17:00N 20°12' W 164°30'1111.3 100 / 121015.5 27.6
2017-Jul-12 16:00N 20°12' W 164°18'8 8.2 100 / 131015.1 27.6
2017-Jul-12 15:00N 20°18' W 164°12'1111.3 100 / 131015.1 27.6
2017-Jul-12 14:00N 20°18' W 164°00'1111.3 100 / 131015.4 27.7
2017-Jul-12 13:00N 20°18' W 163°48'1111.3 100 / 131015.8 27.6
2017-Jul-12 12:00N 20°18' W 163°36'1312.8 100 / 121016.1 27.6
2017-Jul-12 11:00N 20°24' W 163°24'1111.2 100 / 121016.6 27.6
2017-Jul-12 10:00N 20°24' W 163°12'6 5.6 100 / 121016.9 27.6
2017-Jul-12 09:00N 20°24' W 163°06'1312.7 100 / 111016.8 27.7
2017-Jul-12 08:00N 20°30' W 162°54'1111.2 100 / 111016.2 27.7
2017-Jul-12 07:00N 20°30' W 162°42'1111.2 100 / 101015.8 27.8
2017-Jul-12 06:00N 20°30' W 162°30'1312.7 100 / 101015.5 27.9
2017-Jul-12 05:00N 20°36' W 162°18'6 5.6 100 / 111015.1 27.8
2017-Jul-12 04:00N 20°36' W 162°12'1111.2 090 / 101015.0 27.9
2017-Jul-12 03:00N 20°36' W 162°00'1111.2 100 / 91015.1 27.9
2017-Jul-12 02:00N 20°36' W 161°48'1312.7 080 / 101015.3 28.0
2017-Jul-12 01:00N 20°42' W 161°36'1111.2 090 / 101015.5 27.9
2017-Jul-12 00:00N 20°42' W 161°24'6 5.6 100 / 81015.6 27.7
2017-Jul-11 23:00N 20°42' W 161°18'1312.7 090 / 91015.9 27.3
2017-Jul-11 22:00N 20°48' W 161°06'1111.2 100 / 101015.9 27.2
2017-Jul-11 21:00N 20°48' W 160°54'1111.2 100 / 111015.8 27.2
2017-Jul-11 20:00N 20°48' W 160°42'8 8.2 100 / 101015.7 27.1
2017-Jul-11 19:00N 20°54' W 160°36'1111.2 100 / 101015.6 27.2
2017-Jul-11 18:00N 20°54' W 160°24'1111.2 100 / 111015.3 26.9
2017-Jul-11 17:00N 20°54' W 160°12'129128.9 100 / 101015.0 27.0
2017-Jul-11 16:00N 20°54' W 157°54'107106.6 110 / 91011.6 5.4 26.023.126.9
2017-Jul-11 15:00N 21°00' W 159°48'1111.2 100 / 91014.5 27.1
2017-Jul-11 14:00N 21°00' W 159°36'1111.2 100 / 101014.6 27.0
2017-Jul-11 13:00N 21°00' W 159°24'6 5.6 090 / 111014.7 27.0
2017-Jul-11 12:00N 21°00' W 159°18'1312.7 090 / 121015.1 27.1
2017-Jul-11 11:00N 21°06' W 159°06'1111.2 090 / 131015.4 27.2
2017-Jul-11 10:00N 21°06' W 158°54'1111.2 090 / 121015.7 27.0
2017-Jul-11 09:00N 21°06' W 158°42'1312.7 070 / 101015.8 26.8
2017-Jul-11 08:00N 21°12' W 158°30'1111.2 070 / 121015.2 26.9
2017-Jul-11 07:00N 21°12' W 158°18'1111.2 070 / 121014.9 27.0
2017-Jul-11 06:00N 21°12' W 158°06'1111.2 050 / 121014.6 27.0
2017-Jul-11 05:00N 21°12' W 157°54'6 6.0 070 / 131014.2 26.8
2017-Jul-11 04:00N 21°18' W 157°54'6 5.6 050 / 181013.7 26.8
2017-Jul-11 03:00N 21°18' W 158°00'0 0.0 090 / 171013.5 27.0
2017-Jul-11 02:00N 21°18' W 158°00'   080 / 171013.5 26.9

Dump ship's entire track history